sensor_id;sensor_type;location;lat;lon;timestamp;temperature;humidity
13642;DHT22;6894;52.196;9.904;2023-01-01T00:01:44;17.20;99.90
13642;DHT22;6894;52.196;9.904;2023-01-01T00:04:13;17.20;94.20
13642;DHT22;6894;52.196;9.904;2023-01-01T00:06:40;17.10;85.30
13642;DHT22;6894;52.196;9.904;2023-01-01T00:09:07;17.20;94.30
13642;DHT22;6894;52.196;9.904;2023-01-01T00:11:51;17.20;68.30
13642;DHT22;6894;52.196;9.904;2023-01-01T00:14:18;17.10;72.10
13642;DHT22;6894;52.196;9.904;2023-01-01T00:16:46;17.20;46.60
13642;DHT22;6894;52.196;9.904;2023-01-01T00:19:12;17.30;6.60
13642;DHT22;6894;52.196;9.904;2023-01-01T00:21:39;17.30;1.70
13642;DHT22;6894;52.196;9.904;2023-01-01T00:24:06;17.30;1.00
13642;DHT22;6894;52.196;9.904;2023-01-01T00:26:33;17.40;1.00
13642;DHT22;6894;52.196;9.904;2023-01-01T00:29:00;17.40;1.00
13642;DHT22;6894;52.196;9.904;2023-01-01T00:31:27;17.30;1.00
13642;DHT22;6894;52.196;9.904;2023-01-01T00:33:55;17.40;1.00
13642;DHT22;6894;52.196;9.904;2023-01-01T00:36:24;17.40;1.00
13642;DHT22;6894;52.196;9.904;2023-01-01T00:38:52;17.40;1.00
13642;DHT22;6894;52.196;9.904;2023-01-01T00:41:18;17.50;1.00
13642;DHT22;6894;52.196;9.904;2023-01-01T00:43:45;17.50;1.00
13642;DHT22;6894;52.196;9.904;2023-01-01T00:46:12;17.50;1.00
13642;DHT22;6894;52.196;9.904;2023-01-01T00:48:39;17.40;1.00
13642;DHT22;6894;52.196;9.904;2023-01-01T00:51:07;17.40;1.00
13642;DHT22;6894;52.196;9.904;2023-01-01T00:53:34;17.40;1.00
13642;DHT22;6894;52.196;9.904;2023-01-01T00:56:01;17.40;1.00
13642;DHT22;6894;52.196;9.904;2023-01-01T00:58:28;17.40;1.00
13642;DHT22;6894;52.196;9.904;2023-01-01T01:00:55;17.40;1.00
13642;DHT22;6894;52.196;9.904;2023-01-01T01:03:22;17.30;1.00
13642;DHT22;6894;52.196;9.904;2023-01-01T01:05:56;17.40;1.00
13642;DHT22;6894;52.196;9.904;2023-01-01T01:08:24;17.30;1.00
13642;DHT22;6894;52.196;9.904;2023-01-01T01:10:51;17.40;1.00
13642;DHT22;6894;52.196;9.904;2023-01-01T01:13:18;17.50;1.00
13642;DHT22;6894;52.196;9.904;2023-01-01T01:15:45;17.40;1.00
13642;DHT22;6894;52.196;9.904;2023-01-01T01:18:12;17.40;1.00
13642;DHT22;6894;52.196;9.904;2023-01-01T01:20:38;17.40;1.00
13642;DHT22;6894;52.196;9.904;2023-01-01T01:23:05;17.40;1.00
13642;DHT22;6894;52.196;9.904;2023-01-01T01:25:33;17.40;1.00
13642;DHT22;6894;52.196;9.904;2023-01-01T01:28:00;17.40;1.00
13642;DHT22;6894;52.196;9.904;2023-01-01T01:30:26;17.40;1.00
13642;DHT22;6894;52.196;9.904;2023-01-01T01:32:55;17.40;1.00
13642;DHT22;6894;52.196;9.904;2023-01-01T01:35:21;17.40;1.00
13642;DHT22;6894;52.196;9.904;2023-01-01T01:37:48;17.40;1.00
13642;DHT22;6894;52.196;9.904;2023-01-01T01:40:15;17.50;1.00
13642;DHT22;6894;52.196;9.904;2023-01-01T01:42:46;17.50;1.00
13642;DHT22;6894;52.196;9.904;2023-01-01T01:45:14;17.50;1.00
13642;DHT22;6894;52.196;9.904;2023-01-01T01:47:45;17.40;1.00
13642;DHT22;6894;52.196;9.904;2023-01-01T01:50:18;17.40;1.00
13642;DHT22;6894;52.196;9.904;2023-01-01T01:52:57;17.30;1.00
13642;DHT22;6894;52.196;9.904;2023-01-01T01:55:26;17.40;1.00
13642;DHT22;6894;52.196;9.904;2023-01-01T01:57:57;17.40;1.00
13642;DHT22;6894;52.196;9.904;2023-01-01T02:00:23;17.40;1.00
13642;DHT22;6894;52.196;9.904;2023-01-01T02:02:53;17.40;1.00
13642;DHT22;6894;52.196;9.904;2023-01-01T02:05:22;17.30;1.00
13642;DHT22;6894;52.196;9.904;2023-01-01T02:07:51;17.40;1.00
13642;DHT22;6894;52.196;9.904;2023-01-01T02:10:18;17.30;1.00
13642;DHT22;6894;52.196;9.904;2023-01-01T02:12:45;17.30;1.00
13642;DHT22;6894;52.196;9.904;2023-01-01T02:15:14;17.30;1.00
13642;DHT22;6894;52.196;9.904;2023-01-01T02:17:46;17.30;1.00
13642;DHT22;6894;52.196;9.904;2023-01-01T02:20:28;17.30;1.00
13642;DHT22;6894;52.196;9.904;2023-01-01T02:26:23;17.20;1.00
13642;DHT22;6894;52.196;9.904;2023-01-01T02:29:09;17.10;1.00
13642;DHT22;6894;52.196;9.904;2023-01-01T02:31:44;17.10;1.00
13642;DHT22;6894;52.196;9.904;2023-01-01T02:34:14;17.10;1.00
13642;DHT22;6894;52.196;9.904;2023-01-01T02:36:47;17.00;1.00
13642;DHT22;6894;52.196;9.904;2023-01-01T02:39:16;17.10;1.00
13642;DHT22;6894;52.196;9.904;2023-01-01T02:41:47;17.10;1.00
13642;DHT22;6894;52.196;9.904;2023-01-01T02:44:18;17.00;1.00
13642;DHT22;6894;52.196;9.904;2023-01-01T02:46:45;17.10;1.00
13642;DHT22;6894;52.196;9.904;2023-01-01T02:49:11;17.10;1.00
13642;DHT22;6894;52.196;9.904;2023-01-01T02:51:45;17.10;1.00
13642;DHT22;6894;52.196;9.904;2023-01-01T02:54:27;17.20;1.00
13642;DHT22;6894;52.196;9.904;2023-01-01T02:57:03;17.20;1.00
13642;DHT22;6894;52.196;9.904;2023-01-01T02:59:40;17.10;1.00
13642;DHT22;6894;52.196;9.904;2023-01-01T03:02:40;17.10;1.00
13642;DHT22;6894;52.196;9.904;2023-01-01T03:05:14;17.00;1.00
13642;DHT22;6894;52.196;9.904;2023-01-01T03:07:51;17.00;1.00
13642;DHT22;6894;52.196;9.904;2023-01-01T03:10:26;17.00;1.00
13642;DHT22;6894;52.196;9.904;2023-01-01T03:12:59;17.00;1.00
13642;DHT22;6894;52.196;9.904;2023-01-01T03:15:35;17.00;1.00
13642;DHT22;6894;52.196;9.904;2023-01-01T03:18:08;16.90;1.00
13642;DHT22;6894;52.196;9.904;2023-01-01T03:20:40;17.00;1.00
13642;DHT22;6894;52.196;9.904;2023-01-01T03:23:14;16.90;1.00
13642;DHT22;6894;52.196;9.904;2023-01-01T03:25:45;16.80;1.00
13642;DHT22;6894;52.196;9.904;2023-01-01T03:28:17;16.80;1.00
13642;DHT22;6894;52.196;9.904;2023-01-01T03:30:47;16.90;1.00
13642;DHT22;6894;52.196;9.904;2023-01-01T03:33:17;16.80;1.00
13642;DHT22;6894;52.196;9.904;2023-01-01T03:35:49;16.70;1.00
13642;DHT22;6894;52.196;9.904;2023-01-01T03:38:19;16.80;1.00
13642;DHT22;6894;52.196;9.904;2023-01-01T03:40:50;16.70;1.00
13642;DHT22;6894;52.196;9.904;2023-01-01T03:43:22;16.70;1.00
13642;DHT22;6894;52.196;9.904;2023-01-01T03:45:56;16.70;1.00
13642;DHT22;6894;52.196;9.904;2023-01-01T03:48:25;16.70;1.00
13642;DHT22;6894;52.196;9.904;2023-01-01T03:50:57;16.60;1.00
13642;DHT22;6894;52.196;9.904;2023-01-01T03:53:32;16.60;1.00
13642;DHT22;6894;52.196;9.904;2023-01-01T03:56:06;16.60;1.00
13642;DHT22;6894;52.196;9.904;2023-01-01T03:58:38;16.60;1.00
13642;DHT22;6894;52.196;9.904;2023-01-01T04:01:10;16.60;1.00
13642;DHT22;6894;52.196;9.904;2023-01-01T04:03:37;16.60;1.00
13642;DHT22;6894;52.196;9.904;2023-01-01T04:06:06;16.60;1.00
13642;DHT22;6894;52.196;9.904;2023-01-01T04:08:34;16.50;1.00
13642;DHT22;6894;52.196;9.904;2023-01-01T04:11:05;16.50;1.00
13642;DHT22;6894;52.196;9.904;2023-01-01T04:13:53;16.50;1.00
13642;DHT22;6894;52.196;9.904;2023-01-01T04:16:21;16.50;1.00
13642;DHT22;6894;52.196;9.904;2023-01-01T04:18:48;16.50;1.00
13642;DHT22;6894;52.196;9.904;2023-01-01T04:21:14;16.50;1.00
13642;DHT22;6894;52.196;9.904;2023-01-01T04:23:41;16.50;1.00
13642;DHT22;6894;52.196;9.904;2023-01-01T04:26:12;16.40;1.00
13642;DHT22;6894;52.196;9.904;2023-01-01T04:28:39;16.30;1.00
13642;DHT22;6894;52.196;9.904;2023-01-01T04:31:07;16.40;1.00
13642;DHT22;6894;52.196;9.904;2023-01-01T04:33:35;16.40;1.00
13642;DHT22;6894;52.196;9.904;2023-01-01T04:36:03;16.50;1.00
13642;DHT22;6894;52.196;9.904;2023-01-01T04:38:32;16.40;1.00
13642;DHT22;6894;52.196;9.904;2023-01-01T04:40:59;16.40;1.00
13642;DHT22;6894;52.196;9.904;2023-01-01T04:43:27;16.40;1.00
13642;DHT22;6894;52.196;9.904;2023-01-01T04:45:57;16.40;1.00
13642;DHT22;6894;52.196;9.904;2023-01-01T04:48:24;16.40;1.00
13642;DHT22;6894;52.196;9.904;2023-01-01T04:50:56;16.40;1.00
13642;DHT22;6894;52.196;9.904;2023-01-01T04:53:23;16.40;1.00
13642;DHT22;6894;52.196;9.904;2023-01-01T04:55:50;16.50;1.00
13642;DHT22;6894;52.196;9.904;2023-01-01T04:58:17;16.30;1.00
13642;DHT22;6894;52.196;9.904;2023-01-01T05:00:48;16.30;1.00
13642;DHT22;6894;52.196;9.904;2023-01-01T05:03:15;16.40;1.00
13642;DHT22;6894;52.196;9.904;2023-01-01T05:05:42;16.30;1.00
13642;DHT22;6894;52.196;9.904;2023-01-01T05:08:10;16.20;1.00
13642;DHT22;6894;52.196;9.904;2023-01-01T05:10:37;16.30;1.00
13642;DHT22;6894;52.196;9.904;2023-01-01T05:13:06;16.30;1.00
13642;DHT22;6894;52.196;9.904;2023-01-01T05:15:35;16.30;1.00
13642;DHT22;6894;52.196;9.904;2023-01-01T05:18:02;16.30;1.00
13642;DHT22;6894;52.196;9.904;2023-01-01T05:20:28;16.30;1.00
13642;DHT22;6894;52.196;9.904;2023-01-01T05:22:55;16.30;1.00
13642;DHT22;6894;52.196;9.904;2023-01-01T05:25:23;16.20;1.00
13642;DHT22;6894;52.196;9.904;2023-01-01T05:27:50;16.30;1.00
13642;DHT22;6894;52.196;9.904;2023-01-01T05:30:17;16.30;1.00
13642;DHT22;6894;52.196;9.904;2023-01-01T05:32:44;16.30;1.00
13642;DHT22;6894;52.196;9.904;2023-01-01T05:35:10;16.20;1.00
13642;DHT22;6894;52.196;9.904;2023-01-01T05:37:37;16.20;1.00
13642;DHT22;6894;52.196;9.904;2023-01-01T05:40:05;16.20;1.00
13642;DHT22;6894;52.196;9.904;2023-01-01T05:42:33;16.10;1.00
13642;DHT22;6894;52.196;9.904;2023-01-01T05:45:00;16.20;1.00
13642;DHT22;6894;52.196;9.904;2023-01-01T05:47:27;16.20;1.00
13642;DHT22;6894;52.196;9.904;2023-01-01T05:49:54;16.20;1.00
13642;DHT22;6894;52.196;9.904;2023-01-01T05:52:20;16.10;1.00
13642;DHT22;6894;52.196;9.904;2023-01-01T05:54:47;16.10;1.00
13642;DHT22;6894;52.196;9.904;2023-01-01T05:57:14;16.00;1.00
13642;DHT22;6894;52.196;9.904;2023-01-01T05:59:42;16.00;1.00
13642;DHT22;6894;52.196;9.904;2023-01-01T06:02:08;16.10;1.00
13642;DHT22;6894;52.196;9.904;2023-01-01T06:04:35;16.10;1.00
13642;DHT22;6894;52.196;9.904;2023-01-01T06:07:02;16.10;1.00
13642;DHT22;6894;52.196;9.904;2023-01-01T06:09:28;16.00;1.00
13642;DHT22;6894;52.196;9.904;2023-01-01T06:11:55;16.10;1.00
13642;DHT22;6894;52.196;9.904;2023-01-01T06:14:22;16.20;1.00
13642;DHT22;6894;52.196;9.904;2023-01-01T06:16:50;16.10;1.00
13642;DHT22;6894;52.196;9.904;2023-01-01T06:19:16;16.10;1.00
13642;DHT22;6894;52.196;9.904;2023-01-01T06:21:43;16.00;1.00
13642;DHT22;6894;52.196;9.904;2023-01-01T06:24:10;15.90;1.00
13642;DHT22;6894;52.196;9.904;2023-01-01T06:26:37;16.00;1.00
13642;DHT22;6894;52.196;9.904;2023-01-01T06:29:04;15.90;1.00
13642;DHT22;6894;52.196;9.904;2023-01-01T06:31:31;15.90;1.00
13642;DHT22;6894;52.196;9.904;2023-01-01T06:33:59;15.80;1.00
13642;DHT22;6894;52.196;9.904;2023-01-01T06:36:26;15.80;1.00
13642;DHT22;6894;52.196;9.904;2023-01-01T06:38:54;15.90;1.00
13642;DHT22;6894;52.196;9.904;2023-01-01T06:41:22;15.80;1.00
13642;DHT22;6894;52.196;9.904;2023-01-01T06:43:50;15.70;7.40
13642;DHT22;6894;52.196;9.904;2023-01-01T06:46:18;15.60;1.00
13642;DHT22;6894;52.196;9.904;2023-01-01T06:48:46;15.70;12.90
13642;DHT22;6894;52.196;9.904;2023-01-01T06:51:16;15.70;30.00
13642;DHT22;6894;52.196;9.904;2023-01-01T06:53:43;15.70;61.20
13642;DHT22;6894;52.196;9.904;2023-01-01T06:56:10;15.70;99.90
13642;DHT22;6894;52.196;9.904;2023-01-01T06:58:37;15.60;99.90
13642;DHT22;6894;52.196;9.904;2023-01-01T07:01:05;15.70;99.90
13642;DHT22;6894;52.196;9.904;2023-01-01T07:03:32;15.60;99.90
13642;DHT22;6894;52.196;9.904;2023-01-01T07:05:59;15.70;99.90
13642;DHT22;6894;52.196;9.904;2023-01-01T07:08:27;15.70;99.90
13642;DHT22;6894;52.196;9.904;2023-01-01T07:10:54;15.70;99.90
13642;DHT22;6894;52.196;9.904;2023-01-01T07:13:22;15.70;99.90
13642;DHT22;6894;52.196;9.904;2023-01-01T07:15:49;15.60;99.90
13642;DHT22;6894;52.196;9.904;2023-01-01T07:18:15;15.60;99.90
13642;DHT22;6894;52.196;9.904;2023-01-01T07:20:42;15.70;99.90
13642;DHT22;6894;52.196;9.904;2023-01-01T07:23:10;15.70;99.90
13642;DHT22;6894;52.196;9.904;2023-01-01T07:25:38;15.70;99.90
13642;DHT22;6894;52.196;9.904;2023-01-01T07:28:06;15.70;99.90
13642;DHT22;6894;52.196;9.904;2023-01-01T07:30:33;15.70;99.90
13642;DHT22;6894;52.196;9.904;2023-01-01T07:33:00;15.60;99.90
13642;DHT22;6894;52.196;9.904;2023-01-01T07:35:26;15.60;99.90
13642;DHT22;6894;52.196;9.904;2023-01-01T07:37:53;15.50;99.90
13642;DHT22;6894;52.196;9.904;2023-01-01T07:40:20;15.50;1.00
13642;DHT22;6894;52.196;9.904;2023-01-01T07:42:48;15.50;99.90
13642;DHT22;6894;52.196;9.904;2023-01-01T07:45:15;15.50;1.00
13642;DHT22;6894;52.196;9.904;2023-01-01T07:47:41;15.50;1.00
13642;DHT22;6894;52.196;9.904;2023-01-01T07:50:15;15.50;1.00
13642;DHT22;6894;52.196;9.904;2023-01-01T07:52:42;15.50;1.00
13642;DHT22;6894;52.196;9.904;2023-01-01T07:55:11;15.50;1.00
13642;DHT22;6894;52.196;9.904;2023-01-01T07:57:37;15.50;1.00
13642;DHT22;6894;52.196;9.904;2023-01-01T08:00:07;15.60;1.00
13642;DHT22;6894;52.196;9.904;2023-01-01T08:02:34;15.60;1.00
13642;DHT22;6894;52.196;9.904;2023-01-01T08:05:00;15.60;1.00
13642;DHT22;6894;52.196;9.904;2023-01-01T08:07:27;15.50;1.00
13642;DHT22;6894;52.196;9.904;2023-01-01T08:09:54;15.50;1.00
13642;DHT22;6894;52.196;9.904;2023-01-01T08:12:20;15.60;1.00
13642;DHT22;6894;52.196;9.904;2023-01-01T08:14:47;15.60;1.00
13642;DHT22;6894;52.196;9.904;2023-01-01T08:17:15;15.60;1.00
13642;DHT22;6894;52.196;9.904;2023-01-01T08:19:42;15.60;1.00
13642;DHT22;6894;52.196;9.904;2023-01-01T08:22:09;15.60;1.00
13642;DHT22;6894;52.196;9.904;2023-01-01T08:24:36;15.60;1.00
13642;DHT22;6894;52.196;9.904;2023-01-01T08:27:03;15.60;1.00
13642;DHT22;6894;52.196;9.904;2023-01-01T08:29:29;15.60;1.00
13642;DHT22;6894;52.196;9.904;2023-01-01T08:31:56;15.60;1.00
13642;DHT22;6894;52.196;9.904;2023-01-01T08:34:24;15.60;1.00
13642;DHT22;6894;52.196;9.904;2023-01-01T08:36:51;15.50;1.00
13642;DHT22;6894;52.196;9.904;2023-01-01T08:39:17;15.50;1.00
13642;DHT22;6894;52.196;9.904;2023-01-01T08:41:44;15.50;1.00
13642;DHT22;6894;52.196;9.904;2023-01-01T08:44:11;15.50;1.00
13642;DHT22;6894;52.196;9.904;2023-01-01T08:46:37;15.50;1.00
13642;DHT22;6894;52.196;9.904;2023-01-01T08:49:04;15.60;1.00
13642;DHT22;6894;52.196;9.904;2023-01-01T08:51:32;15.40;1.00
13642;DHT22;6894;52.196;9.904;2023-01-01T08:53:59;15.40;1.00
13642;DHT22;6894;52.196;9.904;2023-01-01T08:56:26;15.50;1.00
13642;DHT22;6894;52.196;9.904;2023-01-01T08:58:52;15.40;1.00
13642;DHT22;6894;52.196;9.904;2023-01-01T09:01:19;15.30;1.00
13642;DHT22;6894;52.196;9.904;2023-01-01T09:03:46;15.40;1.00
13642;DHT22;6894;52.196;9.904;2023-01-01T09:06:13;15.50;1.00
13642;DHT22;6894;52.196;9.904;2023-01-01T09:08:41;15.40;1.00
13642;DHT22;6894;52.196;9.904;2023-01-01T09:11:20;15.40;1.00
13642;DHT22;6894;52.196;9.904;2023-01-01T09:13:48;15.40;1.00
13642;DHT22;6894;52.196;9.904;2023-01-01T09:16:14;15.40;1.00
13642;DHT22;6894;52.196;9.904;2023-01-01T09:18:41;15.40;1.00
13642;DHT22;6894;52.196;9.904;2023-01-01T09:21:08;15.40;1.00
13642;DHT22;6894;52.196;9.904;2023-01-01T09:23:34;15.40;1.00
13642;DHT22;6894;52.196;9.904;2023-01-01T09:26:03;15.30;1.00
13642;DHT22;6894;52.196;9.904;2023-01-01T09:28:30;15.40;1.00
13642;DHT22;6894;52.196;9.904;2023-01-01T09:30:57;15.30;1.00
13642;DHT22;6894;52.196;9.904;2023-01-01T09:33:23;15.30;99.90
13642;DHT22;6894;52.196;9.904;2023-01-01T09:35:50;15.30;99.90
13642;DHT22;6894;52.196;9.904;2023-01-01T09:38:17;15.40;99.90
13642;DHT22;6894;52.196;9.904;2023-01-01T09:40:51;15.30;99.90
13642;DHT22;6894;52.196;9.904;2023-01-01T09:43:33;15.40;99.90
13642;DHT22;6894;52.196;9.904;2023-01-01T09:46:05;15.40;99.90
13642;DHT22;6894;52.196;9.904;2023-01-01T09:48:36;15.40;99.90
13642;DHT22;6894;52.196;9.904;2023-01-01T09:51:04;15.40;99.90
13642;DHT22;6894;52.196;9.904;2023-01-01T09:53:36;15.40;99.90
13642;DHT22;6894;52.196;9.904;2023-01-01T09:56:08;15.40;99.90
13642;DHT22;6894;52.196;9.904;2023-01-01T09:58:37;15.30;99.90
13642;DHT22;6894;52.196;9.904;2023-01-01T10:01:10;15.40;99.90
13642;DHT22;6894;52.196;9.904;2023-01-01T10:03:46;15.40;99.90
13642;DHT22;6894;52.196;9.904;2023-01-01T10:06:21;15.30;1.00
13642;DHT22;6894;52.196;9.904;2023-01-01T10:09:00;15.30;1.00
13642;DHT22;6894;52.196;9.904;2023-01-01T10:11:35;15.30;1.00
13642;DHT22;6894;52.196;9.904;2023-01-01T10:14:13;15.20;1.00
13642;DHT22;6894;52.196;9.904;2023-01-01T10:16:44;15.20;1.00
13642;DHT22;6894;52.196;9.904;2023-01-01T10:19:21;15.10;26.40
13642;DHT22;6894;52.196;9.904;2023-01-01T10:21:51;14.90;1.00
13642;DHT22;6894;52.196;9.904;2023-01-01T10:24:31;14.50;1.00
13642;DHT22;6894;52.196;9.904;2023-01-01T10:27:01;14.10;1.00
13642;DHT22;6894;52.196;9.904;2023-01-01T10:29:37;13.90;99.90
13642;DHT22;6894;52.196;9.904;2023-01-01T10:32:16;13.70;1.00
13642;DHT22;6894;52.196;9.904;2023-01-01T10:34:44;13.60;99.90
13642;DHT22;6894;52.196;9.904;2023-01-01T10:37:12;13.60;1.00
13642;DHT22;6894;52.196;9.904;2023-01-01T10:39:40;13.50;1.00
13642;DHT22;6894;52.196;9.904;2023-01-01T10:42:11;13.40;1.00
13642;DHT22;6894;52.196;9.904;2023-01-01T10:44:40;13.50;99.90
13642;DHT22;6894;52.196;9.904;2023-01-01T10:47:24;13.40;1.00
13642;DHT22;6894;52.196;9.904;2023-01-01T10:49:54;13.40;1.00
13642;DHT22;6894;52.196;9.904;2023-01-01T10:52:24;13.50;1.00
13642;DHT22;6894;52.196;9.904;2023-01-01T10:54:51;13.50;1.00
13642;DHT22;6894;52.196;9.904;2023-01-01T10:57:28;13.50;1.00
13642;DHT22;6894;52.196;9.904;2023-01-01T11:00:09;13.40;1.00
13642;DHT22;6894;52.196;9.904;2023-01-01T11:02:37;13.30;1.00
13642;DHT22;6894;52.196;9.904;2023-01-01T11:05:14;13.30;3.60
13642;DHT22;6894;52.196;9.904;2023-01-01T11:07:42;13.30;7.80
13642;DHT22;6894;52.196;9.904;2023-01-01T11:10:16;13.30;99.90
13642;DHT22;6894;52.196;9.904;2023-01-01T11:12:44;13.30;99.90
13642;DHT22;6894;52.196;9.904;2023-01-01T11:15:22;13.30;99.90
13642;DHT22;6894;52.196;9.904;2023-01-01T11:17:50;13.20;99.90
13642;DHT22;6894;52.196;9.904;2023-01-01T11:20:17;13.20;99.90
13642;DHT22;6894;52.196;9.904;2023-01-01T11:22:46;13.20;1.00
13642;DHT22;6894;52.196;9.904;2023-01-01T11:25:18;13.10;1.00
13642;DHT22;6894;52.196;9.904;2023-01-01T11:27:46;12.90;1.00
13642;DHT22;6894;52.196;9.904;2023-01-01T11:30:22;12.70;1.00
13642;DHT22;6894;52.196;9.904;2023-01-01T11:32:51;12.60;1.00
13642;DHT22;6894;52.196;9.904;2023-01-01T11:35:21;12.60;1.00
13642;DHT22;6894;52.196;9.904;2023-01-01T11:37:49;12.90;10.90
13642;DHT22;6894;52.196;9.904;2023-01-01T11:40:20;12.70;21.30
13642;DHT22;6894;52.196;9.904;2023-01-01T11:42:49;12.80;22.50
13642;DHT22;6894;52.196;9.904;2023-01-01T11:45:19;12.70;23.30
13642;DHT22;6894;52.196;9.904;2023-01-01T11:47:52;12.70;26.40
13642;DHT22;6894;52.196;9.904;2023-01-01T11:50:25;12.60;27.90
13642;DHT22;6894;52.196;9.904;2023-01-01T11:52:53;12.60;29.90
13642;DHT22;6894;52.196;9.904;2023-01-01T11:55:28;12.60;39.20
13642;DHT22;6894;52.196;9.904;2023-01-01T11:58:02;12.60;27.10
13642;DHT22;6894;52.196;9.904;2023-01-01T12:00:33;12.60;36.40
13642;DHT22;6894;52.196;9.904;2023-01-01T12:03:10;12.70;32.80
13642;DHT22;6894;52.196;9.904;2023-01-01T12:05:45;12.70;32.10
13642;DHT22;6894;52.196;9.904;2023-01-01T12:08:18;12.70;32.60
13642;DHT22;6894;52.196;9.904;2023-01-01T12:10:50;12.80;31.90
13642;DHT22;6894;52.196;9.904;2023-01-01T12:13:21;12.70;47.30
13642;DHT22;6894;52.196;9.904;2023-01-01T12:15:57;12.70;58.30
13642;DHT22;6894;52.196;9.904;2023-01-01T12:18:31;12.70;57.60
13642;DHT22;6894;52.196;9.904;2023-01-01T12:21:02;12.70;64.30
13642;DHT22;6894;52.196;9.904;2023-01-01T12:23:31;12.70;40.10
13642;DHT22;6894;52.196;9.904;2023-01-01T12:26:04;12.60;1.00
13642;DHT22;6894;52.196;9.904;2023-01-01T12:28:40;12.50;1.00
13642;DHT22;6894;52.196;9.904;2023-01-01T12:31:14;12.40;1.00
13642;DHT22;6894;52.196;9.904;2023-01-01T12:33:56;12.50;1.00
13642;DHT22;6894;52.196;9.904;2023-01-01T12:36:35;12.40;1.00
13642;DHT22;6894;52.196;9.904;2023-01-01T12:39:48;12.50;1.00
13642;DHT22;6894;52.196;9.904;2023-01-01T12:42:28;12.50;1.00
13642;DHT22;6894;52.196;9.904;2023-01-01T12:45:16;12.40;1.00
13642;DHT22;6894;52.196;9.904;2023-01-01T12:47:53;12.50;1.00
13642;DHT22;6894;52.196;9.904;2023-01-01T12:50:36;12.50;1.00
13642;DHT22;6894;52.196;9.904;2023-01-01T12:53:15;12.50;1.00
13642;DHT22;6894;52.196;9.904;2023-01-01T12:56:13;12.50;1.00
13642;DHT22;6894;52.196;9.904;2023-01-01T12:58:43;12.50;1.00
13642;DHT22;6894;52.196;9.904;2023-01-01T13:01:18;12.50;1.00
13642;DHT22;6894;52.196;9.904;2023-01-01T13:03:49;12.60;1.00
13642;DHT22;6894;52.196;9.904;2023-01-01T13:06:21;12.60;1.00
13642;DHT22;6894;52.196;9.904;2023-01-01T13:08:53;12.70;1.00
13642;DHT22;6894;52.196;9.904;2023-01-01T13:11:21;12.80;1.00
13642;DHT22;6894;52.196;9.904;2023-01-01T13:13:51;12.80;1.00
13642;DHT22;6894;52.196;9.904;2023-01-01T13:16:32;12.90;1.00
13642;DHT22;6894;52.196;9.904;2023-01-01T13:18:59;13.00;1.00
13642;DHT22;6894;52.196;9.904;2023-01-01T13:21:27;13.00;1.00
13642;DHT22;6894;52.196;9.904;2023-01-01T13:24:01;12.90;1.00
13642;DHT22;6894;52.196;9.904;2023-01-01T13:26:37;12.90;1.00
13642;DHT22;6894;52.196;9.904;2023-01-01T13:29:33;12.80;1.00
13642;DHT22;6894;52.196;9.904;2023-01-01T13:32:05;12.70;1.00
13642;DHT22;6894;52.196;9.904;2023-01-01T13:37:44;12.50;1.00
13642;DHT22;6894;52.196;9.904;2023-01-01T13:40:47;12.60;1.00
13642;DHT22;6894;52.196;9.904;2023-01-01T13:43:28;12.60;1.00
13642;DHT22;6894;52.196;9.904;2023-01-01T13:45:59;12.60;1.00
13642;DHT22;6894;52.196;9.904;2023-01-01T13:48:42;12.50;1.00
13642;DHT22;6894;52.196;9.904;2023-01-01T13:51:40;12.50;1.00
13642;DHT22;6894;52.196;9.904;2023-01-01T13:54:55;12.40;1.00
13642;DHT22;6894;52.196;9.904;2023-01-01T13:58:03;12.40;1.00
13642;DHT22;6894;52.196;9.904;2023-01-01T14:00:38;12.40;1.00
13642;DHT22;6894;52.196;9.904;2023-01-01T14:03:11;12.40;1.00
13642;DHT22;6894;52.196;9.904;2023-01-01T14:05:42;12.40;1.00
13642;DHT22;6894;52.196;9.904;2023-01-01T14:08:27;12.50;1.00
13642;DHT22;6894;52.196;9.904;2023-01-01T14:10:56;12.40;1.00
13642;DHT22;6894;52.196;9.904;2023-01-01T14:13:26;12.40;1.00
13642;DHT22;6894;52.196;9.904;2023-01-01T14:15:55;12.40;1.00
13642;DHT22;6894;52.196;9.904;2023-01-01T14:18:31;12.30;1.00
13642;DHT22;6894;52.196;9.904;2023-01-01T14:20:59;12.30;1.00
13642;DHT22;6894;52.196;9.904;2023-01-01T14:23:29;12.30;1.00
13642;DHT22;6894;52.196;9.904;2023-01-01T14:25:59;12.30;1.00
13642;DHT22;6894;52.196;9.904;2023-01-01T14:28:28;12.20;1.00
13642;DHT22;6894;52.196;9.904;2023-01-01T14:30:57;12.20;1.00
13642;DHT22;6894;52.196;9.904;2023-01-01T14:33:26;12.30;1.00
13642;DHT22;6894;52.196;9.904;2023-01-01T14:35:55;12.30;1.00
13642;DHT22;6894;52.196;9.904;2023-01-01T14:38:26;12.40;1.00
13642;DHT22;6894;52.196;9.904;2023-01-01T14:41:11;12.50;99.90
13642;DHT22;6894;52.196;9.904;2023-01-01T14:43:41;12.70;99.90
13642;DHT22;6894;52.196;9.904;2023-01-01T14:46:13;13.00;1.00
13642;DHT22;6894;52.196;9.904;2023-01-01T14:48:42;13.10;99.90
13642;DHT22;6894;52.196;9.904;2023-01-01T14:51:12;13.30;90.70
13642;DHT22;6894;52.196;9.904;2023-01-01T14:53:41;13.50;1.00
13642;DHT22;6894;52.196;9.904;2023-01-01T14:56:09;13.60;1.00
13642;DHT22;6894;52.196;9.904;2023-01-01T14:58:46;13.50;99.90
13642;DHT22;6894;52.196;9.904;2023-01-01T15:01:13;13.80;1.00
13642;DHT22;6894;52.196;9.904;2023-01-01T15:03:54;13.80;99.90
13642;DHT22;6894;52.196;9.904;2023-01-01T15:06:22;13.90;1.00
13642;DHT22;6894;52.196;9.904;2023-01-01T15:08:50;13.90;1.00
13642;DHT22;6894;52.196;9.904;2023-01-01T15:11:18;14.00;1.00
13642;DHT22;6894;52.196;9.904;2023-01-01T15:13:53;14.00;1.00
13642;DHT22;6894;52.196;9.904;2023-01-01T15:16:20;14.00;1.00
13642;DHT22;6894;52.196;9.904;2023-01-01T15:18:47;14.00;1.00
13642;DHT22;6894;52.196;9.904;2023-01-01T15:21:17;13.90;1.00
13642;DHT22;6894;52.196;9.904;2023-01-01T15:23:51;14.00;1.00
13642;DHT22;6894;52.196;9.904;2023-01-01T15:26:27;14.00;1.00
13642;DHT22;6894;52.196;9.904;2023-01-01T15:28:54;14.00;1.00
13642;DHT22;6894;52.196;9.904;2023-01-01T15:31:21;14.00;1.00
13642;DHT22;6894;52.196;9.904;2023-01-01T15:33:56;13.90;1.00
13642;DHT22;6894;52.196;9.904;2023-01-01T15:36:23;14.00;1.00
13642;DHT22;6894;52.196;9.904;2023-01-01T15:38:51;14.00;1.00
13642;DHT22;6894;52.196;9.904;2023-01-01T15:41:38;14.10;1.00
13642;DHT22;6894;52.196;9.904;2023-01-01T15:44:07;14.00;1.00
13642;DHT22;6894;52.196;9.904;2023-01-01T15:46:34;14.00;1.00
13642;DHT22;6894;52.196;9.904;2023-01-01T15:49:00;14.00;1.00
13642;DHT22;6894;52.196;9.904;2023-01-01T15:51:28;13.90;1.00
13642;DHT22;6894;52.196;9.904;2023-01-01T15:53:56;13.90;1.00
13642;DHT22;6894;52.196;9.904;2023-01-01T15:56:27;13.90;1.00
13642;DHT22;6894;52.196;9.904;2023-01-01T15:58:58;13.90;1.00
13642;DHT22;6894;52.196;9.904;2023-01-01T16:01:27;13.90;77.00
13642;DHT22;6894;52.196;9.904;2023-01-01T16:04:00;13.90;99.90
13642;DHT22;6894;52.196;9.904;2023-01-01T16:06:28;13.80;99.90
13642;DHT22;6894;52.196;9.904;2023-01-01T16:08:55;13.90;99.90
13642;DHT22;6894;52.196;9.904;2023-01-01T16:11:22;13.70;99.90
13642;DHT22;6894;52.196;9.904;2023-01-01T16:13:50;13.80;99.90
13642;DHT22;6894;52.196;9.904;2023-01-01T16:16:23;13.90;99.90
13642;DHT22;6894;52.196;9.904;2023-01-01T16:18:51;13.80;99.90
13642;DHT22;6894;52.196;9.904;2023-01-01T16:21:18;13.80;99.90
13642;DHT22;6894;52.196;9.904;2023-01-01T16:23:45;13.70;1.00
13642;DHT22;6894;52.196;9.904;2023-01-01T16:26:11;13.70;1.00